Weather at Roy Hill Station Airport

Public forecast

Using degrees Celsius for public forecast. Weather courtesy of forecast.io.

Closest aviation weather report (METAR) to Roy Hill Station Airport

Closest report is Port Hedland International Airport, 154.1 nm (285.5 km) NNW.

2024/05/20 06:30 (retrieved 15 minutes ago)

YPPD 200630Z AUTO 11011KT 9999 // NCD 31/05 Q1015 RF000/0000

Closest aviation forecast (TAF) to Roy Hill Station Airport

Closest forecast is Port Hedland International Airport, 154.1 nm (285.5 km) NNW.

2024/05/20 06:36 (retrieved 9 minutes ago)

TAF YPPD 200508Z 2006/2106 10016KT CAVOK FM200900 13009KT CAVOK FM210000 09020G30KT CAVOK FM210500 07017KT CAVOK